Time;durP1;ratioP1;P1;durP2;ratioP2;P2;SDS_P1;SDS_P2;PMS_P1;PMS_P2;Temp;Humidity;BMP_temperature;BMP_pressure;BME280_temperature;BME280_humidity;BME280_pressure;Samples;Min_cycle;Max_cycle;Signal;HPM_P1;HPM_P2
2022/04/23 00:00:23;;;;;;;20.55;13.70;;;;;;;9.80;97.16;98627.16;4463963;32;34240;-73
2022/04/23 00:03:10;;;;;;;19.27;13.25;;;;;;;9.21;100.00;98635.28;4465245;32;35636;-72
2022/04/23 00:05:58;;;;;;;17.73;12.40;;;;;;;9.86;98.83;98634.03;4463266;32;34897;-73
2022/04/23 00:08:44;;;;;;;18.23;12.80;;;;;;;10.09;96.84;98622.78;4465303;32;34678;-72
2022/04/23 00:11:30;;;;;;;18.20;12.60;;;;;;;9.24;100.00;98634.63;4463399;32;34358;-73
2022/04/23 00:14:17;;;;;;;18.70;12.88;;;;;;;8.82;100.00;98639.84;4453196;32;34596;-73
2022/04/23 00:17:04;;;;;;;18.60;13.20;;;;;;;9.59;100.00;98637.22;4464246;32;34951;-73
2022/04/23 00:19:50;;;;;;;23.02;14.50;;;;;;;10.00;98.74;98644.75;4463741;32;34647;-73
2022/04/23 00:22:37;;;;;;;20.65;13.40;;;;;;;9.23;100.00;98649.44;4462438;32;33857;-73
2022/04/23 00:25:23;;;;;;;19.25;13.85;;;;;;;9.65;100.00;98650.41;4464081;32;34676;-73
2022/04/23 00:28:10;;;;;;;17.70;12.82;;;;;;;9.88;99.60;98634.50;4463921;32;34926;-73
2022/04/23 00:30:56;;;;;;;19.50;13.15;;;;;;;10.45;95.00;98646.09;4463987;32;34885;-73
2022/04/23 00:33:42;;;;;;;21.50;14.35;;;;;;;9.27;100.00;98647.62;4464157;32;33998;-73
2022/04/23 00:36:29;;;;;;;23.58;15.43;;;;;;;9.23;100.00;98635.75;4464171;32;34640;-73
2022/04/23 00:39:15;;;;;;;20.37;14.35;;;;;;;8.70;100.00;98645.19;4462071;32;36445;-73
2022/04/23 00:42:08;;;;;;;20.52;14.50;;;;;;;9.52;100.00;98647.88;4464762;32;36329;-73
2022/04/23 00:44:54;;;;;;;21.95;14.48;;;;;;;9.29;100.00;98645.37;4464199;32;34962;-73
2022/04/23 00:47:40;;;;;;;22.27;14.60;;;;;;;9.10;100.00;98650.41;4464482;32;34642;-73
2022/04/23 00:50:27;;;;;;;19.65;13.50;;;;;;;9.20;100.00;98659.09;4462728;32;34888;-72
2022/04/23 00:53:13;;;;;;;19.85;13.80;;;;;;;9.49;100.00;98648.53;4463443;32;34550;-72
2022/04/23 00:56:00;;;;;;;21.60;14.45;;;;;;;10.11;96.55;98642.44;4451924;32;34144;-72
2022/04/23 00:58:46;;;;;;;21.90;15.95;;;;;;;9.47;100.00;98657.06;4464895;32;33613;-72
2022/04/23 01:01:33;;;;;;;27.87;17.95;;;;;;;8.06;100.00;98654.75;4464939;32;34861;-72
2022/04/23 01:04:19;;;;;;;26.65;17.15;;;;;;;7.78;100.00;98654.19;4464360;32;34613;-72
2022/04/23 01:07:06;;;;;;;26.00;16.62;;;;;;;8.32;100.00;98654.00;4463630;32;35117;-72
2022/04/23 01:09:53;;;;;;;23.90;16.30;;;;;;;9.00;100.00;98660.56;4463364;32;33615;-72
2022/04/23 01:12:39;;;;;;;25.37;16.12;;;;;;;9.17;100.00;98664.41;4462579;32;34922;-72
2022/04/23 01:15:25;;;;;;;23.90;16.90;;;;;;;8.95;100.00;98651.75;4444857;32;33455;-72
2022/04/23 01:18:14;;;;;;;26.05;17.17;;;;;;;9.71;100.00;98656.50;4464368;32;35127;-72
2022/04/23 01:21:02;;;;;;;22.17;15.43;;;;;;;8.94;100.00;98656.41;4464013;32;34604;-72
2022/04/23 01:23:52;;;;;;;25.10;16.52;;;;;;;9.33;100.00;98657.25;4463778;32;34875;-73
2022/04/23 01:26:39;;;;;;;24.05;15.68;;;;;;;8.84;100.00;98673.13;4462887;32;34818;-72
2022/04/23 01:29:25;;;;;;;27.00;17.98;;;;;;;8.51;100.00;98657.25;4464848;32;34205;-73
2022/04/23 01:32:11;;;;;;;29.10;18.62;;;;;;;8.38;100.00;98655.44;4463561;32;34695;-72
2022/04/23 01:34:58;;;;;;;28.35;18.42;;;;;;;8.26;100.00;98652.53;4463420;32;36498;-73
2022/04/23 01:37:44;;;;;;;26.73;17.92;;;;;;;8.59;100.00;98657.56;4464642;32;35253;-72
2022/04/23 01:40:30;;;;;;;27.77;18.10;;;;;;;8.39;100.00;98656.25;4464041;32;34290;-72
2022/04/23 01:43:17;;;;;;;29.37;19.90;;;;;;;8.62;100.00;98654.19;4464010;32;34605;-72
2022/04/23 01:46:03;;;;;;;29.65;19.62;;;;;;;8.00;100.00;98664.22;4452211;32;34475;-72
2022/04/23 01:48:49;;;;;;;32.97;21.75;;;;;;;7.60;100.00;98661.53;4462590;32;35439;-72
2022/04/23 01:51:36;;;;;;;34.22;21.70;;;;;;;7.53;100.00;98657.63;4461202;32;34168;-71
2022/04/23 01:54:22;;;;;;;30.90;20.10;;;;;;;7.57;100.00;98659.44;4463613;32;34333;-72
2022/04/23 01:57:08;;;;;;;36.05;22.23;;;;;;;7.81;100.00;98664.47;4464183;32;34946;-72
2022/04/23 01:59:55;;;;;;;31.42;21.25;;;;;;;7.55;100.00;98660.88;4462605;32;35423;-72
2022/04/23 02:02:42;;;;;;;38.05;23.25;;;;;;;7.64;100.00;98672.59;4464047;32;34332;-71
2022/04/23 02:05:28;;;;;;;38.42;22.67;;;;;;;7.32;100.00;98662.84;4463357;32;34230;-72
2022/04/23 02:08:16;;;;;;;39.03;24.08;;;;;;;7.56;100.00;98667.91;4461315;32;34889;-71
2022/04/23 02:11:03;;;;;;;38.60;23.52;;;;;;;7.53;100.00;98668.53;4463785;32;35172;-71
2022/04/23 02:13:51;;;;;;;42.15;25.15;;;;;;;7.72;100.00;98671.03;4462967;32;34166;-71
2022/04/23 02:16:37;;;;;;;41.22;24.92;;;;;;;7.93;100.00;98672.03;4463032;32;35295;-72
2022/04/23 02:19:24;;;;;;;37.78;23.98;;;;;;;7.84;100.00;98669.28;4463674;32;35934;-71
2022/04/23 02:22:11;;;;;;;41.33;24.20;;;;;;;8.24;100.00;98665.69;4462047;32;35677;-72
2022/04/23 02:24:58;;;;;;;37.25;23.92;;;;;;;7.80;100.00;98673.00;4459958;32;34053;-71
2022/04/23 02:27:45;;;;;;;38.63;23.27;;;;;;;8.54;100.00;98664.78;4463784;32;34383;-72
2022/04/23 02:30:33;;;;;;;33.28;21.02;;;;;;;8.95;100.00;98665.41;4461180;32;34654;-72
2022/04/23 02:33:20;;;;;;;32.50;20.67;;;;;;;9.56;100.00;98676.16;4463379;32;35470;-72
2022/04/23 02:36:08;;;;;;;28.17;19.25;;;;;;;9.98;100.00;98677.09;4463596;32;34238;-72
2022/04/23 02:38:55;;;;;;;30.77;20.42;;;;;;;10.00;100.00;98685.78;4462152;32;36091;-72
2022/04/23 02:41:41;;;;;;;28.50;19.25;;;;;;;10.03;100.00;98684.34;4463474;32;35034;-72
2022/04/23 02:44:28;;;;;;;28.45;18.85;;;;;;;9.62;100.00;98683.06;4462374;32;33375;-72
2022/04/23 02:47:14;;;;;;;28.50;18.15;;;;;;;9.73;100.00;98681.56;4463791;32;33129;-72
2022/04/23 02:50:00;;;;;;;32.00;21.12;;;;;;;9.33;100.00;98670.94;4463350;32;33604;-72
2022/04/23 02:52:47;;;;;;;32.72;21.33;;;;;;;8.37;100.00;98686.59;4463004;32;33734;-72
2022/04/23 02:55:34;;;;;;;30.17;20.10;;;;;;;8.83;100.00;98678.91;4461778;32;34202;-72
2022/04/23 02:58:20;;;;;;;31.50;20.35;;;;;;;9.17;100.00;98687.06;4459883;32;34189;-72
2022/04/23 03:01:10;;;;;;;29.12;19.95;;;;;;;8.97;100.00;98685.81;4461804;32;34640;-72
2022/04/23 03:03:56;;;;;;;31.87;19.92;;;;;;;8.66;100.00;98683.25;4463388;32;36001;-72
2022/04/23 03:06:44;;;;;;;33.10;21.62;;;;;;;8.94;100.00;98681.00;4461790;32;35133;-72
2022/04/23 03:09:30;;;;;;;30.17;19.80;;;;;;;8.39;100.00;98684.34;4462432;32;34975;-72
2022/04/23 03:12:17;;;;;;;30.40;19.83;;;;;;;8.87;100.00;98688.06;4462352;32;34633;-72
2022/04/23 03:15:06;;;;;;;31.23;20.65;;;;;;;8.69;100.00;98679.09;4461085;32;34842;-71
2022/04/23 03:18:11;;;;;;;30.35;19.95;;;;;;;8.66;100.00;98682.47;4460453;32;35791;-72
2022/04/23 03:20:58;;;;;;;33.55;19.15;;;;;;;8.89;100.00;98680.34;4462606;32;34368;-71
2022/04/23 03:23:45;;;;;;;27.35;18.12;;;;;;;9.35;100.00;98689.75;4461843;32;34191;-72
2022/04/23 03:26:31;;;;;;;27.77;18.95;;;;;;;9.29;100.00;98689.13;4462791;32;35035;-72
2022/04/23 03:29:18;;;;;;;27.62;18.37;;;;;;;9.13;100.00;98690.75;4463481;32;34550;-71
2022/04/23 03:32:06;;;;;;;29.08;18.83;;;;;;;8.88;100.00;98695.94;4461949;32;35023;-72
2022/04/23 03:34:52;;;;;;;30.17;18.77;;;;;;;9.52;100.00;98691.63;4461572;32;33440;-71
2022/04/23 03:37:40;;;;;;;31.23;19.85;;;;;;;8.98;100.00;98700.28;4465611;32;35019;-72
2022/04/23 03:40:27;;;;;;;28.00;19.58;;;;;;;8.85;100.00;98704.78;4462874;32;35471;-71
2022/04/23 03:43:13;;;;;;;27.67;19.05;;;;;;;8.97;100.00;98706.88;4461343;32;33343;-71
2022/04/23 03:45:59;;;;;;;29.60;19.15;;;;;;;9.46;100.00;98710.16;4459784;32;35612;-72
2022/04/23 03:48:45;;;;;;;27.90;18.20;;;;;;;9.20;100.00;98712.94;4463961;32;34477;-71
2022/04/23 03:51:32;;;;;;;30.20;18.80;;;;;;;8.82;100.00;98710.88;4462833;32;34219;-72
2022/04/23 03:54:19;;;;;;;26.20;18.62;;;;;;;9.16;100.00;98717.44;4464180;32;34215;-72
2022/04/23 03:57:05;;;;;;;30.58;19.48;;;;;;;9.21;100.00;98718.06;4464203;32;35366;-71
2022/04/23 03:59:52;;;;;;;31.35;20.02;;;;;;;9.18;100.00;98724.19;4462507;32;34920;-72
2022/04/23 04:02:38;;;;;;;33.28;21.08;;;;;;;8.59;100.00;98715.69;4463219;32;34267;-72
2022/04/23 04:05:25;;;;;;;30.85;19.90;;;;;;;7.94;100.00;98720.03;4464014;32;33972;-71
2022/04/23 04:08:12;;;;;;;34.00;21.27;;;;;;;7.88;100.00;98724.00;4460581;32;35249;-71
2022/04/23 04:10:58;;;;;;;34.05;20.45;;;;;;;7.99;100.00;98728.06;4462990;32;35599;-71
2022/04/23 04:13:44;;;;;;;30.67;19.60;;;;;;;8.93;100.00;98720.34;4462855;32;35329;-71
2022/04/23 04:16:31;;;;;;;28.58;18.65;;;;;;;9.53;100.00;98717.84;4463844;32;35381;-71
2022/04/23 04:19:17;;;;;;;28.30;18.08;;;;;;;9.97;100.00;98723.97;4461386;32;34238;-71
2022/04/23 04:22:04;;;;;;;28.58;18.23;;;;;;;9.67;100.00;98726.66;4452149;32;34911;-72
2022/04/23 04:24:51;;;;;;;29.98;19.08;;;;;;;9.50;100.00;98737.63;4463300;32;34548;-71
2022/04/23 04:27:38;;;;;;;27.05;18.37;;;;;;;9.21;100.00;98736.41;4452496;32;33789;-72
2022/04/23 04:30:24;;;;;;;26.90;18.15;;;;;;;9.34;100.00;98738.16;4463226;32;34565;-72
2022/04/23 04:33:10;;;;;;;23.83;16.50;;;;;;;9.68;100.00;98744.69;4464348;32;35122;-72
2022/04/23 04:35:56;;;;;;;24.60;15.80;;;;;;;10.32;100.00;98741.03;4462671;32;34799;-71
2022/04/23 04:38:43;;;;;;;22.70;15.88;;;;;;;10.32;100.00;98741.84;4463403;32;34773;-72
2022/04/23 04:41:33;;;;;;;28.95;18.12;;;;;;;10.27;100.00;98738.47;4462382;32;34616;-72
2022/04/23 04:44:19;;;;;;;24.65;17.35;;;;;;;8.56;100.00;98744.44;4462457;32;34683;-71
2022/04/23 04:47:06;;;;;;;27.45;16.52;;;;;;;7.90;100.00;98743.59;4465622;32;34332;-71
2022/04/23 04:49:53;;;;;;;23.55;16.02;;;;;;;8.29;100.00;98739.22;4463254;32;34152;-72
2022/04/23 04:52:40;;;;;;;24.37;16.48;;;;;;;8.06;100.00;98739.34;4461792;32;35456;-71
2022/04/23 04:55:27;;;;;;;27.02;17.20;;;;;;;8.41;100.00;98731.25;4464102;32;35623;-72
2022/04/23 04:58:13;;;;;;;26.20;17.02;;;;;;;8.05;100.00;98745.09;4464014;32;34598;-71
2022/04/23 05:11:33;;;;;;;21.10;16.37;;;;;;;11.08;100.00;98737.25;4483800;32;190750;-70
2022/04/23 05:14:22;;;;;;;19.92;14.63;;;;;;;11.08;100.00;98737.25;4473401;32;34197;-69
2022/04/23 05:17:10;;;;;;;19.17;14.05;;;;;;;9.84;100.00;98748.47;4472856;32;34608;-70
2022/04/23 05:19:59;;;;;;;22.45;15.40;;;;;;;10.51;99.44;98746.09;4474912;32;35820;-69
2022/04/23 05:22:47;;;;;;;23.25;15.50;;;;;;;9.93;100.00;98755.84;4473718;32;34018;-69
2022/04/23 05:25:45;;;;;;;19.85;14.30;;;;;;;9.11;100.00;98764.09;4474390;32;34854;-69
2022/04/23 05:28:35;;;;;;;19.52;14.32;;;;;;;9.61;100.00;98766.25;4474535;32;35414;-72
2022/04/23 05:34:19;;;;;;;17.77;13.43;;;;;;;10.65;100.00;98765.00;4472640;32;34436;-72
2022/04/23 05:37:08;;;;;;;20.60;14.98;;;;;;;9.44;100.00;98767.09;4473196;32;34245;-72
2022/04/23 05:39:59;;;;;;;21.23;15.35;;;;;;;9.46;100.00;98775.78;4475382;32;34711;-72
2022/04/23 05:42:50;;;;;;;21.77;15.13;;;;;;;9.34;100.00;98770.16;4474142;32;33509;-72
2022/04/23 05:45:37;;;;;;;21.08;15.07;;;;;;;10.28;100.00;98779.22;4475497;32;34344;-72
2022/04/23 05:48:27;;;;;;;25.15;15.00;;;;;;;9.80;100.00;98771.34;4475389;32;33829;-73
2022/04/23 05:51:23;;;;;;;20.15;14.15;;;;;;;10.29;100.00;98774.56;4474318;32;34663;-72
2022/04/23 05:54:11;;;;;;;19.75;14.40;;;;;;;8.98;100.00;98772.09;4474322;32;34759;-72
2022/04/23 05:56:58;;;;;;;20.80;14.95;;;;;;;9.20;100.00;98781.28;4472200;32;33146;-72
2022/04/23 05:59:46;;;;;;;20.73;14.10;;;;;;;10.04;100.00;98782.50;4472067;32;34334;-72
2022/04/23 06:02:32;;;;;;;17.92;13.77;;;;;;;10.67;100.00;98785.47;4473557;32;34517;-72
2022/04/23 06:05:20;;;;;;;17.35;13.10;;;;;;;10.64;100.00;98785.31;4474166;32;34912;-72
2022/04/23 06:11:07;;;;;;;17.60;12.43;;;;;;;11.16;98.59;98780.25;4467169;32;34459;-72
2022/04/23 06:13:56;;;;;;;15.68;11.52;;;;;;;10.91;98.66;98786.75;4464309;32;34607;-73
2022/04/23 06:16:49;;;;;;;15.15;11.55;;;;;;;11.00;95.35;98798.44;4462328;32;35710;-72
2022/04/23 06:19:38;;;;;;;16.77;11.80;;;;;;;11.99;91.00;98789.47;4464211;32;34679;-73
2022/04/23 06:22:27;;;;;;;16.20;11.50;;;;;;;12.25;90.16;98796.56;4463586;32;33206;-73
2022/04/23 06:25:14;;;;;;;16.50;11.20;;;;;;;11.24;94.09;98804.06;4452604;32;34736;-73
2022/04/23 06:28:02;;;;;;;15.18;11.15;;;;;;;11.38;96.26;98808.44;4463969;32;36027;-73
2022/04/23 06:30:53;;;;;;;15.70;11.63;;;;;;;10.77;99.04;98822.63;4460603;32;34206;-73
2022/04/23 06:33:45;;;;;;;12.37;9.27;;;;;;;11.68;94.39;98825.59;4464282;32;33689;-73
2022/04/23 06:36:40;;;;;;;13.32;10.07;;;;;;;12.24;86.59;98827.91;4458191;32;34513;-73
2022/04/23 06:39:40;;;;;;;16.10;11.93;;;;;;;10.99;94.85;98837.97;4462899;32;34586;-73
2022/04/23 06:42:31;;;;;;;18.05;12.63;;;;;;;10.58;100.00;98840.28;4460712;32;34869;-73
2022/04/23 06:45:19;;;;;;;15.35;12.13;;;;;;;10.99;96.79;98840.69;4461305;32;34829;-73
2022/04/23 06:48:07;;;;;;;14.77;11.20;;;;;;;10.48;100.00;98842.59;4459718;32;34612;-73
2022/04/23 06:50:54;;;;;;;15.85;11.50;;;;;;;10.70;100.00;98839.59;4462518;32;35008;-73
2022/04/23 06:53:43;;;;;;;17.90;12.23;;;;;;;10.85;100.00;98842.87;4461550;32;35894;-73
2022/04/23 06:56:38;;;;;;;16.45;11.68;;;;;;;10.25;100.00;98855.72;4447651;32;34204;-72
2022/04/23 06:59:44;;;;;;;15.88;11.02;;;;;;;9.80;100.00;98854.22;4454501;32;35648;-73
2022/04/23 07:02:33;;;;;;;;;;;;;;;9.44;100.00;98851.84;4460188;32;34324;-86
2022/04/23 07:05:23;;;;;;;15.43;10.27;;;;;;;10.41;100.00;98861.47;4464515;32;34586;-86
2022/04/23 07:08:10;;;;;;;13.88;10.80;;;;;;;9.93;100.00;98862.56;4463062;32;33169;-87
2022/04/23 07:10:59;;;;;;;17.40;10.60;;;;;;;9.84;100.00;98860.63;4462864;32;35162;-86
2022/04/23 07:13:46;;;;;;;15.95;11.23;;;;;;;10.27;100.00;98865.22;4460113;32;35073;-86
2022/04/23 07:16:34;;;;;;;13.93;10.23;;;;;;;10.99;98.53;98868.13;4460403;32;34154;-86
2022/04/23 07:19:22;;;;;;;12.77;9.35;;;;;;;11.36;94.57;98871.06;4463491;32;34072;-90
2022/04/23 07:22:14;;;;;;;13.93;9.90;;;;;;;10.77;98.21;98872.75;4466239;32;34577;-90
2022/04/23 07:25:11;;;;;;;14.20;9.98;;;;;;;11.31;96.27;98872.06;4462736;32;33851;-89
2022/04/23 07:28:02;;;;;;;12.85;9.15;;;;;;;11.40;96.35;98866.50;4463598;32;34582;-90
2022/04/23 07:30:50;;;;;;;12.55;9.20;;;;;;;11.63;94.20;98875.19;4455050;32;34058;-89
2022/04/23 07:40:13;;;;;;;13.27;8.93;;;;;;;11.38;94.31;98893.47;4463482;32;34575;-89
2022/04/23 07:43:12;;;;;;;13.55;9.02;;;;;;;10.92;97.07;98889.75;4465638;32;33592;-89
2022/04/23 07:46:01;;;;;;;14.95;9.05;;;;;;;10.79;95.13;98886.13;4473210;32;35454;-89
2022/04/23 07:48:58;;;;;;;17.70;11.80;;;;;;;11.02;97.07;98886.63;4464301;32;34106;-88
2022/04/23 07:51:46;;;;;;;21.33;13.80;;;;;;;10.97;98.75;98892.31;4467521;32;34439;-87
2022/04/23 07:54:44;;;;;;;18.73;11.98;;;;;;;10.21;100.00;98895.81;4462582;32;34246;-88
2022/04/23 07:57:34;;;;;;;17.70;13.65;;;;;;;10.53;100.00;98894.44;4460762;32;35422;-88
2022/04/23 08:00:23;;;;;;;19.85;13.82;;;;;;;10.11;100.00;98903.25;4455777;32;34553;-88
2022/04/23 08:03:14;;;;;;;18.23;14.05;;;;;;;9.97;100.00;98904.59;4453394;32;33241;-89
2022/04/23 08:06:16;;;;;;;23.92;15.88;;;;;;;10.25;100.00;98916.75;4458111;32;33815;-87
2022/04/23 08:09:07;;;;;;;19.50;14.87;;;;;;;10.14;100.00;98912.75;4457380;32;34616;-87
2022/04/23 08:11:55;;;;;;;20.60;15.10;;;;;;;10.35;100.00;98916.41;4461742;32;35219;-87
2022/04/23 08:14:50;;;;;;;20.25;14.80;;;;;;;10.39;100.00;98919.31;4460519;32;35315;-88
2022/04/23 08:17:44;;;;;;;18.40;14.05;;;;;;;10.04;100.00;98911.16;4464400;32;34905;-88
2022/04/23 08:20:33;;;;;;;19.87;14.60;;;;;;;10.62;100.00;98916.34;4463461;32;34633;-88
2022/04/23 08:23:35;;;;;;;18.45;13.57;;;;;;;10.81;100.00;98916.72;4462102;32;34931;-87
2022/04/23 08:26:27;;;;;;;19.40;14.07;;;;;;;11.14;100.00;98919.59;4461829;32;34474;-87
2022/04/23 08:32:36;;;;;;;16.33;12.37;;;;;;;11.85;93.06;98920.69;4460482;32;34703;-87
2022/04/23 08:38:37;;;;;;;17.10;12.65;;;;;;;12.57;89.34;98918.50;4462705;32;34577;-86
2022/04/23 08:41:29;;;;;;;13.80;10.70;;;;;;;13.51;84.14;98914.81;4455822;32;34370;-86
2022/04/23 08:44:18;;;;;;;16.05;11.63;;;;;;;12.97;81.30;98915.09;4442737;32;34539;-86
2022/04/23 08:47:18;;;;;;;14.10;11.12;;;;;;;13.04;83.59;98913.38;4458861;32;34960;-85
2022/04/23 08:50:14;;;;;;;18.35;11.35;;;;;;;12.89;83.24;98911.28;4456850;32;34522;-85
2022/04/23 08:53:18;;;;;;;14.98;11.77;;;;;;;13.31;86.29;98915.78;4456693;32;35149;-82
2022/04/23 08:56:17;;;;;;;14.80;9.70;;;;;;;14.17;77.21;98916.25;4443094;32;34665;-81
2022/04/23 08:59:08;;;;;;;12.68;10.38;;;;;;;14.87;73.78;98914.94;4454330;32;36060;-82
2022/04/23 09:02:00;;;;;;;15.40;10.30;;;;;;;14.26;74.35;98925.19;4454682;32;34689;-81
2022/04/23 09:04:52;;;;;;;13.40;10.10;;;;;;;12.57;83.71;98935.78;4461115;32;34172;-81
2022/04/23 09:07:56;;;;;;;13.82;10.00;;;;;;;12.53;84.33;98929.38;4453808;32;34513;-81
2022/04/23 09:10:54;;;;;;;12.70;9.20;;;;;;;12.85;80.61;98934.34;4458910;32;34947;-82
2022/04/23 09:26:22;;;;;;;11.20;8.13;;;;;;;13.84;78.46;98947.63;4449619;32;34366;-84
2022/04/23 09:29:16;;;;;;;11.98;9.15;;;;;;;13.44;78.25;98951.19;4461882;32;35088;-81
2022/04/23 09:32:13;;;;;;;13.82;8.85;;;;;;;13.41;77.33;98954.63;4460221;32;36040;-81
2022/04/23 09:38:20;;;;;;;13.18;9.73;;;;;;;13.19;80.90;98952.31;4458394;32;34761;-84
2022/04/23 09:41:19;;;;;;;12.70;8.82;;;;;;;13.53;79.35;98953.81;4451775;32;31531;-85
2022/04/23 09:44:09;;;;;;;13.25;9.48;;;;;;;13.61;76.10;98960.31;4454495;32;34502;-83
2022/04/23 09:47:00;;;;;;;12.65;9.30;;;;;;;12.54;83.58;98952.97;4459315;32;36043;-84
2022/04/23 09:49:58;;;;;;;14.60;10.23;;;;;;;12.97;82.19;98948.87;4458167;32;34626;-84
2022/04/23 09:52:46;;;;;;;13.48;9.10;;;;;;;12.52;82.74;98954.44;4463481;32;34544;-84
2022/04/23 09:55:50;;;;;;;13.62;8.93;;;;;;;12.14;84.54;98960.97;4453264;32;35459;-84
2022/04/23 09:58:39;;;;;;;17.55;10.20;;;;;;;12.89;80.89;98966.28;4470428;31;34795;-84
2022/04/23 10:01:34;;;;;;;15.52;9.55;;;;;;;12.24;85.76;98965.25;4463827;32;34631;-82
2022/04/23 10:07:29;;;;;;;13.52;9.68;;;;;;;12.33;84.70;98968.72;4459994;32;34555;-84
2022/04/23 10:10:40;;;;;;;14.77;9.43;;;;;;;11.85;87.18;98970.94;4453748;32;35913;-82
2022/04/23 10:13:43;;;;;;;13.85;9.93;;;;;;;12.48;85.29;98975.50;4461880;32;34209;-82
2022/04/23 10:16:36;;;;;;;17.17;10.60;;;;;;;12.73;84.31;98979.13;4460947;32;34810;-82
2022/04/23 10:19:23;;;;;;;17.08;11.00;;;;;;;12.46;84.76;98986.03;4461792;32;34217;-82
2022/04/23 10:22:21;;;;;;;15.70;10.65;;;;;;;12.40;85.03;98990.13;4460428;32;34763;-82
2022/04/23 10:25:31;;;;;;;14.80;9.90;;;;;;;11.98;88.29;98996.50;4463525;32;35133;-82
2022/04/23 10:28:21;;;;;;;14.57;10.52;;;;;;;12.22;85.65;98986.75;4459861;32;35100;-82
2022/04/23 10:31:27;;;;;;;18.87;11.45;;;;;;;11.39;88.90;98988.34;4460397;32;35553;-82
2022/04/23 10:34:32;;;;;;;15.68;11.02;;;;;;;11.94;88.61;98987.31;4460826;32;34791;-84
2022/04/23 10:37:25;;;;;;;15.45;9.63;;;;;;;12.86;84.94;98980.72;4455014;32;34548;-82
2022/04/23 10:40:17;;;;;;;13.60;9.90;;;;;;;13.49;81.31;98983.16;4462577;32;34781;-82
2022/04/23 10:43:13;;;;;;;13.68;9.93;;;;;;;13.22;80.29;98988.19;4465300;32;34642;-81
2022/04/23 10:49:44;;;;;;;14.07;10.23;;;;;;;14.02;78.37;98988.66;4461861;32;34430;-81
2022/04/23 10:52:35;;;;;;;17.15;10.15;;;;;;;13.76;77.87;98995.37;4463139;32;34725;-82
2022/04/23 10:55:25;;;;;;;12.52;8.88;;;;;;;14.02;79.70;98996.91;4460415;32;34330;-82
2022/04/23 10:58:32;;;;;;;13.00;8.82;;;;;;;14.60;75.79;98994.63;4447406;32;35847;-83
2022/04/23 11:01:29;;;;;;;18.65;9.23;;;;;;;14.92;72.76;99003.72;4462878;32;35319;-82
2022/04/23 11:12:14;;;;;;;;;;;;;;;12.84;80.49;99010.53;4462433;32;33960;-81
2022/04/23 11:14:06;;;;;;;12.02;8.20;;;;;;;13.34;79.81;99003.91;4463308;32;36139;-81
2022/04/23 11:16:55;;;;;;;11.40;7.85;;;;;;;14.38;75.46;99005.03;4461794;32;35051;-81
2022/04/23 11:19:52;;;;;;;11.18;7.70;;;;;;;14.18;72.76;99006.84;4464757;32;33678;-81
2022/04/23 11:22:45;;;;;;;12.45;8.30;;;;;;;14.39;72.35;99000.31;4461555;32;35694;-81
2022/04/23 11:25:55;;;;;;;10.95;7.57;;;;;;;14.09;75.25;99005.41;4461105;32;34498;-81
2022/04/23 11:29:03;;;;;;;12.57;8.90;;;;;;;14.86;70.19;99005.16;4463972;32;34212;-81
2022/04/23 11:31:59;;;;;;;15.55;9.70;;;;;;;13.61;75.82;99007.12;4462081;32;34600;-81
2022/04/23 11:35:01;;;;;;;12.52;8.77;;;;;;;13.48;76.45;99012.63;4463672;32;34916;-82
2022/04/23 11:37:56;;;;;;;13.25;9.50;;;;;;;14.26;74.57;99013.38;4463073;32;34488;-81
2022/04/23 11:40:57;;;;;;;12.52;9.27;;;;;;;13.32;80.17;99008.97;4463174;32;34112;-81
2022/04/23 11:46:47;;;;;;;13.15;10.25;;;;;;;12.88;81.50;99008.69;4460930;32;35857;-80
2022/04/23 11:49:38;;;;;;;13.40;9.55;;;;;;;13.14;84.05;99015.81;4451053;32;35209;-80
2022/04/23 11:52:28;;;;;;;15.02;10.07;;;;;;;13.18;83.32;99008.50;4461747;32;33637;-81
2022/04/23 11:55:25;;;;;;;13.62;9.55;;;;;;;13.14;82.86;99013.06;4461821;32;35574;-81
2022/04/23 11:58:20;;;;;;;13.48;10.05;;;;;;;13.11;81.96;99019.25;4461850;32;35962;-81
2022/04/23 12:04:24;;;;;;;16.27;9.23;;;;;;;14.01;77.05;99014.59;4462886;32;34212;-81
2022/04/23 12:10:13;;;;;;;12.23;9.15;;;;;;;14.67;74.75;99008.59;4462912;32;34818;-81
2022/04/23 12:13:07;;;;;;;13.52;9.10;;;;;;;14.46;76.46;98994.19;4462895;32;35370;-81
2022/04/23 12:15:54;;;;;;;12.85;9.13;;;;;;;15.50;71.92;99008.66;4447256;32;33991;-81
2022/04/23 12:18:58;;;;;;;12.48;8.65;;;;;;;15.43;69.19;98998.25;4463262;32;35208;-81
2022/04/23 12:21:58;;;;;;;13.45;8.77;;;;;;;15.40;72.00;99000.94;4460169;32;34960;-81
2022/04/23 12:25:18;;;;;;;13.10;9.07;;;;;;;16.16;69.23;98990.38;4462639;32;35314;-81
2022/04/23 12:40:59;;;;;;;9.15;6.37;;;;;;;17.05;59.80;98978.22;4461512;32;34201;-82
2022/04/23 12:43:52;;;;;;;8.90;6.28;;;;;;;18.24;57.36;98971.59;4463912;32;34571;-81
2022/04/23 12:49:54;;;;;;;9.70;6.93;;;;;;;18.50;50.13;98979.00;4453946;32;34500;-81
2022/04/23 12:52:50;;;;;;;7.47;5.87;;;;;;;17.75;50.85;98971.34;4458445;32;34087;-80
2022/04/23 12:55:51;;;;;;;9.20;6.55;;;;;;;16.69;54.34;98976.78;4462387;32;34243;-80
2022/04/23 12:58:45;;;;;;;13.30;9.10;;;;;;;18.33;52.18;98977.66;4462826;32;33902;-79
2022/04/23 13:01:45;;;;;;;9.48;6.32;;;;;;;17.28;55.23;98983.75;4463271;32;35089;-81
2022/04/23 13:04:47;;;;;;;9.73;6.90;;;;;;;17.90;50.34;98985.41;4463157;32;34174;-80
2022/04/23 13:10:35;;;;;;;9.85;6.68;;;;;;;18.12;51.74;98987.28;4452039;32;34997;-80
2022/04/23 13:13:23;;;;;;;10.52;7.32;;;;;;;19.02;51.32;98983.50;4458976;32;35442;-80
2022/04/23 13:16:12;;;;;;;10.35;6.87;;;;;;;18.82;48.73;98971.84;4458854;32;34722;-80
2022/04/23 13:22:02;;;;;;;9.77;6.93;;;;;;;19.20;49.26;98977.31;4461763;32;35008;-81
2022/04/23 13:24:57;;;;;;;11.50;7.12;;;;;;;18.48;48.12;98981.38;4464991;32;34007;-81
2022/04/23 13:27:45;;;;;;;10.50;6.47;;;;;;;18.40;48.44;98974.94;4462867;32;34034;-80
2022/04/23 13:30:37;;;;;;;11.65;6.40;;;;;;;18.40;49.57;98974.94;4464148;32;34177;-80
2022/04/23 13:33:24;;;;;;;10.07;6.72;;;;;;;18.61;49.60;98969.63;4465591;32;35012;-80
2022/04/23 13:36:13;;;;;;;9.02;5.97;;;;;;;18.80;50.50;98965.88;4465970;32;34624;-81
2022/04/23 13:39:08;;;;;;;8.43;6.10;;;;;;;18.52;48.64;98977.44;4464362;32;35045;-80
2022/04/23 13:42:08;;;;;;;10.68;6.90;;;;;;;18.35;48.88;98978.84;4464671;32;35422;-80
2022/04/23 13:45:03;;;;;;;10.13;6.40;;;;;;;17.35;50.93;98985.00;4464375;32;36011;-80
2022/04/23 13:48:07;;;;;;;10.13;7.10;;;;;;;17.92;49.83;98986.66;4464556;32;34489;-80
2022/04/23 13:50:57;;;;;;;10.07;6.65;;;;;;;17.89;49.75;98976.31;4463893;32;34211;-80
2022/04/23 13:53:58;;;;;;;8.18;5.82;;;;;;;16.79;54.03;98980.94;4464536;32;34396;-80
2022/04/23 13:57:00;;;;;;;10.10;6.90;;;;;;;17.69;50.48;98983.12;4461831;32;34842;-80
2022/04/23 13:59:51;;;;;;;17.02;7.72;;;;;;;17.39;51.73;98985.84;4464974;32;34172;-80
2022/04/23 14:12:18;;;;;;;12.50;8.15;;;;;;;16.81;54.67;98982.16;4459407;32;34989;-80
2022/04/23 14:15:24;;;;;;;13.05;8.25;;;;;;;16.75;56.29;98977.28;4462766;32;35177;-80
2022/04/23 14:18:20;;;;;;;13.13;8.48;;;;;;;16.90;54.86;98987.44;4462508;32;33675;-79
2022/04/23 14:21:20;;;;;;;12.52;8.25;;;;;;;16.70;55.55;98992.22;4464199;32;35723;-80
2022/04/23 14:24:10;;;;;;;15.65;8.80;;;;;;;16.53;56.17;98990.72;4464414;32;34434;-80
2022/04/23 14:27:01;;;;;;;12.00;8.23;;;;;;;15.88;58.18;98996.13;4461136;32;33940;-80
2022/04/23 14:29:49;;;;;;;;;;;;;;;15.89;59.04;99006.81;4464296;32;34586;-79
2022/04/23 14:32:39;;;;;;;12.88;7.60;;;;;;;15.92;58.42;98997.81;4466377;32;35276;-80
2022/04/23 14:35:30;;;;;;;11.05;7.18;;;;;;;16.06;57.77;99002.84;4465127;32;34641;-79
2022/04/23 14:38:25;;;;;;;11.07;7.47;;;;;;;15.70;58.21;98998.50;4463247;32;34761;-79
2022/04/23 14:41:29;;;;;;;13.57;8.88;;;;;;;15.90;58.23;99011.16;4463650;32;34168;-79
2022/04/23 14:44:19;;;;;;;12.23;8.82;;;;;;;15.24;60.41;99001.75;4461647;32;36495;-79
2022/04/23 14:47:07;;;;;;;13.52;8.85;;;;;;;15.58;60.37;99015.97;4462642;32;34478;-79